Jackson, KY

11:48 PM EDT on October 22, 2014 (GMT -0400)
Carroll | Change Station
CLOSE
Current Station
Airport
Location: Jackson,
Elevation: 1381 ft
Nearby Weather Stations

Elev 1381 ft 37.59 °N, 83.31 °W | Updated 55 minutes ago

Overcast
Overcast
48 °F
Feels Like 48 °F
N
0
Wind Variable Wind from North

Today
High -- | Low -- °F
--% Chance of Precip.
Yesterday
High -- | Low -- °F
Precip. -- in
7:48 AM 6:46 PM
Waning Crescent, 1% visible
Pressure 30.25 in
Visibility 10.0 miles
Clouds Overcast 2800 ft
Dew Point 41 °F
Humidity 77%
Rainfall 0.01 in
Snow Depth Not available.
UV 0 out of 12
Pollen 1.00 out of 12
Air Quality Not available.
Flu Activity Sporadic
METAR KJKL 230253Z AUTO 00000KT 10SM OVC028 09/05 A3024 RMK AO2 SLP241 T00890050 51001

More Conditions Fewer Conditions

Pressure 30.25 in
Visibility 10.0 miles
Clouds Overcast 2800 ft
Dew Point 41 °F
Humidity 77%
Rainfall 0.01 in
Snow Depth Not available.
UV 0 out of 12
Pollen 1.00 out of 12
Air Quality Not available.
Flu Activity Sporadic
METAR KJKL 230253Z AUTO 00000KT 10SM OVC028 09/05 A3024 RMK AO2 SLP241 T00890050 51001

More Conditions Fewer Conditions

10-Day Weather Forecast

Almanac

Astronomy

Oct. 22, 2014 Rise Set
Actual Time 7:48 AM EDT 6:46 PM EDT
Civil Twilight 7:21 AM EDT 7:13 PM EDT
Nautical Twilight 6:51 AM EDT 7:44 PM EDT
Astronomical Twilight 6:20 AM EDT 8:14 PM EDT
Moon 6:30 AM EDT (10/22) 6:12 PM EDT (10/22)
Length of Visible Light 11h 51m
Length of Day
10h 58m
Tomorrow will be 2m 15s shorter.
Waning Crescent, 1% of the Moon is Illuminated
Today
Waning Crescent
Oct 23
New
Oct 30
First Quarter
Nov 6
Full
Nov 14
Last Quarter

Today's Extremes

State Highs State Lows

Community

WunderPhotos

Upload Photos

1,764,130 photos uploaded!

Nearby

Snow Depth

Station Depth Elevation
No new snow has been reported.

Earthquake Activity

City Distance Mag. Time & Date
No recent earthquake activity has been reported nearby.
Minimum magnitude displayed is 2.5.

Coastal Water Temperatures

Place Temperature
No Stations Reporting

Nearby Weather Stations